createdAt,value
2023-01-05T00:01:46.857Z,2.17
2023-01-05T00:04:18.009Z,3.43
2023-01-05T00:06:46.708Z,2.50
2023-01-05T00:09:17.692Z,2.13
2023-01-05T00:12:12.212Z,2.30
2023-01-05T00:14:58.566Z,2.23
2023-01-05T00:17:44.635Z,2.47
2023-01-05T00:20:36.149Z,3.40
2023-01-05T00:23:05.417Z,1.90
2023-01-05T00:25:35.290Z,2.13
2023-01-05T00:28:03.745Z,1.90
2023-01-05T00:30:35.413Z,1.57
2023-01-05T00:33:03.938Z,2.03
2023-01-05T00:35:34.823Z,2.20
2023-01-05T00:38:04.437Z,2.03
2023-01-05T00:40:33.760Z,1.83
2023-01-05T00:43:02.681Z,1.87
2023-01-05T00:45:31.824Z,1.70
2023-01-05T00:48:00.708Z,1.70
2023-01-05T00:50:30.163Z,2.00
2023-01-05T00:52:59.922Z,1.33
2023-01-05T00:55:28.657Z,1.43
2023-01-05T00:57:57.629Z,2.30
2023-01-05T01:00:26.375Z,1.77
2023-01-05T01:02:54.801Z,1.87
2023-01-05T01:05:24.736Z,1.93
2023-01-05T01:07:54.405Z,2.00
2023-01-05T01:10:25.430Z,1.40
2023-01-05T01:12:54.598Z,2.17
2023-01-05T01:15:23.322Z,1.33
2023-01-05T01:17:51.693Z,1.90
2023-01-05T01:20:21.194Z,2.20
2023-01-05T01:22:49.587Z,2.30
2023-01-05T01:25:18.435Z,1.60
2023-01-05T01:27:48.155Z,2.07
2023-01-05T01:30:19.987Z,1.20
2023-01-05T01:32:48.392Z,1.33
2023-01-05T01:35:17.125Z,1.97
2023-01-05T01:37:45.520Z,1.93
2023-01-05T01:40:15.505Z,1.30
2023-01-05T01:42:43.867Z,1.57
2023-01-05T01:45:19.937Z,1.60
2023-01-05T01:47:52.707Z,1.90
2023-01-05T01:50:26.145Z,1.50
2023-01-05T01:52:58.458Z,1.40
2023-01-05T01:55:29.228Z,1.70
2023-01-05T01:57:58.826Z,2.17
2023-01-05T02:00:28.903Z,2.23
2023-01-05T02:02:59.259Z,3.10
2023-01-05T02:05:31.506Z,2.30
2023-01-05T02:08:00.408Z,1.77
2023-01-05T02:10:43.672Z,1.70
2023-01-05T02:13:31.618Z,1.93
2023-01-05T02:16:12.382Z,1.57
2023-01-05T02:18:55.802Z,1.77
2023-01-05T02:21:35.221Z,1.83
2023-01-05T02:24:40.110Z,1.33
2023-01-05T02:27:31.529Z,1.20
2023-01-05T02:30:42.183Z,1.80
2023-01-05T02:33:26.471Z,1.87
2023-01-05T02:36:03.428Z,1.70
2023-01-05T02:38:39.311Z,2.63
2023-01-05T02:41:12.914Z,1.50
2023-01-05T02:43:44.207Z,1.80
2023-01-05T02:46:12.726Z,2.00
2023-01-05T02:48:45.493Z,1.77
2023-01-05T02:51:17.349Z,2.00
2023-01-05T02:53:48.974Z,1.97
2023-01-05T02:56:23.678Z,1.53
2023-01-05T02:58:56.219Z,2.00
2023-01-05T03:01:28.466Z,2.47
2023-01-05T03:04:06.172Z,2.10
2023-01-05T03:06:47.172Z,2.07
2023-01-05T03:09:20.491Z,2.40
2023-01-05T03:12:16.838Z,1.90
2023-01-05T03:14:49.514Z,2.67
2023-01-05T03:17:23.247Z,2.03
2023-01-05T03:19:54.002Z,3.83
2023-01-05T03:22:44.406Z,2.10
2023-01-05T03:25:33.144Z,2.33
2023-01-05T03:28:21.820Z,2.00
2023-01-05T03:31:15.943Z,2.00
2023-01-05T03:34:07.959Z,2.10
2023-01-05T03:36:51.346Z,2.03
2023-01-05T03:39:21.012Z,2.13
2023-01-05T03:41:50.076Z,1.83
2023-01-05T03:44:20.359Z,2.50
2023-01-05T03:46:49.640Z,2.23
2023-01-05T03:49:18.759Z,2.10
2023-01-05T03:51:48.866Z,1.60
2023-01-05T03:54:17.736Z,1.70
2023-01-05T03:56:48.736Z,2.07
2023-01-05T03:59:17.234Z,2.27
2023-01-05T04:01:46.431Z,2.17
2023-01-05T04:04:16.530Z,2.50
2023-01-05T04:06:46.455Z,2.37
2023-01-05T04:09:18.228Z,2.47
2023-01-05T04:11:47.822Z,2.30
2023-01-05T04:14:16.240Z,1.70
2023-01-05T04:16:45.270Z,2.13
2023-01-05T04:19:19.192Z,2.97
2023-01-05T04:21:47.955Z,2.80
2023-01-05T04:24:19.025Z,2.50
2023-01-05T04:26:48.444Z,2.60
2023-01-05T04:29:18.871Z,2.80
2023-01-05T04:31:50.784Z,1.97
2023-01-05T04:34:20.995Z,3.07
2023-01-05T04:36:51.875Z,2.83
2023-01-05T04:39:24.025Z,2.30
2023-01-05T04:41:52.852Z,2.73
2023-01-05T04:44:22.497Z,3.10
2023-01-05T04:46:52.135Z,3.97
2023-01-05T04:49:21.608Z,2.17
2023-01-05T04:51:52.342Z,3.47
2023-01-05T04:54:24.951Z,3.13
2023-01-05T04:56:54.400Z,2.77
2023-01-05T04:59:22.782Z,2.33
2023-01-05T05:01:53.871Z,3.33
2023-01-05T05:04:22.545Z,2.93
2023-01-05T05:06:52.482Z,4.17
2023-01-05T05:09:25.691Z,3.10
2023-01-05T05:11:55.716Z,2.37
2023-01-05T05:14:25.449Z,3.33
2023-01-05T05:16:56.196Z,2.70
2023-01-05T05:19:24.619Z,2.47
2023-01-05T05:21:53.470Z,3.37
2023-01-05T05:24:22.422Z,2.70
2023-01-05T05:26:53.602Z,2.07
2023-01-05T05:29:22.035Z,3.20
2023-01-05T05:31:50.703Z,3.27
2023-01-05T05:34:19.475Z,2.70
2023-01-05T05:36:48.168Z,3.03
2023-01-05T05:39:17.561Z,2.53
2023-01-05T05:41:46.164Z,3.17
2023-01-05T05:44:15.970Z,3.00
2023-01-05T05:46:44.769Z,2.30
2023-01-05T05:49:13.271Z,3.30
2023-01-05T05:51:41.985Z,2.87
2023-01-05T05:54:10.373Z,1.80
2023-01-05T05:56:39.028Z,2.77
2023-01-05T05:59:07.379Z,2.53
2023-01-05T06:01:37.466Z,2.97
2023-01-05T06:04:06.307Z,2.47
2023-01-05T06:06:34.950Z,2.37
2023-01-05T06:09:03.334Z,2.83
2023-01-05T06:11:32.117Z,3.00
2023-01-05T06:14:00.641Z,2.70
2023-01-05T06:16:29.816Z,2.70
2023-01-05T06:18:59.705Z,2.67
2023-01-05T06:21:28.564Z,2.03
2023-01-05T06:23:57.019Z,2.17
2023-01-05T06:26:25.927Z,2.40
2023-01-05T06:28:54.453Z,2.00
2023-01-05T06:31:23.188Z,2.37
2023-01-05T06:33:52.003Z,3.60
2023-01-05T06:36:22.027Z,2.20
2023-01-05T06:38:50.467Z,2.03
2023-01-05T06:41:19.140Z,2.77
2023-01-05T06:43:47.727Z,2.80
2023-01-05T06:46:16.486Z,2.57
2023-01-05T06:48:44.890Z,3.27
2023-01-05T06:51:13.613Z,2.90
2023-01-05T06:53:43.556Z,2.20
2023-01-05T06:56:12.505Z,2.40
2023-01-05T06:58:41.144Z,2.50
2023-01-05T07:01:10.248Z,2.50
2023-01-05T07:03:38.805Z,2.70
2023-01-05T07:06:12.967Z,2.80
2023-01-05T07:08:45.273Z,3.10
2023-01-05T07:11:14.486Z,3.40
2023-01-05T07:13:43.663Z,2.57
2023-01-05T07:16:12.428Z,3.10
2023-01-05T07:18:40.800Z,2.83
2023-01-05T07:21:09.734Z,2.80
2023-01-05T07:23:38.824Z,2.83
2023-01-05T07:26:10.405Z,3.00
2023-01-05T07:28:39.580Z,2.87
2023-01-05T07:31:08.795Z,2.97
2023-01-05T07:33:40.103Z,3.10
2023-01-05T07:36:09.806Z,2.67
2023-01-05T07:38:38.408Z,2.97
2023-01-05T07:41:09.367Z,2.97
2023-01-05T07:43:37.689Z,2.77
2023-01-05T07:46:06.863Z,2.57
2023-01-05T07:48:35.341Z,3.00
2023-01-05T07:51:05.743Z,3.13
2023-01-05T07:53:43.928Z,2.80
2023-01-05T07:56:14.899Z,3.37
2023-01-05T07:58:43.723Z,2.20
2023-01-05T08:01:14.364Z,3.13
2023-01-05T08:03:43.008Z,3.40
2023-01-05T08:06:13.416Z,3.10
2023-01-05T08:08:42.220Z,2.40
2023-01-05T08:11:12.564Z,3.47
2023-01-05T08:13:59.697Z,3.13
2023-01-05T08:16:29.365Z,2.87
2023-01-05T08:18:58.065Z,2.93
2023-01-05T08:21:26.809Z,2.50
2023-01-05T08:23:55.223Z,3.30
2023-01-05T08:26:24.879Z,3.20
2023-01-05T08:28:54.896Z,3.10
2023-01-05T08:31:26.069Z,2.43
2023-01-05T08:33:58.001Z,2.40
2023-01-05T08:36:27.390Z,2.13
2023-01-05T08:38:56.500Z,2.20
2023-01-05T08:41:28.038Z,2.30
2023-01-05T08:43:59.561Z,2.43
2023-01-05T08:46:30.526Z,2.57
2023-01-05T08:49:01.041Z,2.23
2023-01-05T08:51:30.723Z,2.80
2023-01-05T08:53:59.459Z,2.77
2023-01-05T08:56:33.059Z,2.50
2023-01-05T08:59:06.718Z,2.77
2023-01-05T09:01:36.765Z,1.87
2023-01-05T09:04:05.655Z,2.43
2023-01-05T09:06:34.617Z,2.63
2023-01-05T09:09:03.206Z,2.13
2023-01-05T09:11:32.137Z,1.90
2023-01-05T09:14:02.967Z,2.27
2023-01-05T09:17:05.389Z,2.03
2023-01-05T09:19:24.253Z,3.53
2023-01-05T09:21:53.654Z,2.17
2023-01-05T09:24:22.235Z,2.20
2023-01-05T09:26:51.456Z,3.53
2023-01-05T09:29:20.072Z,1.97
2023-01-05T09:31:50.520Z,3.37
2023-01-05T09:34:19.381Z,3.63
2023-01-05T09:36:48.479Z,2.33
2023-01-05T09:39:17.046Z,2.13
2023-01-05T09:41:48.761Z,2.53
2023-01-05T09:44:28.500Z,3.03
2023-01-05T09:47:03.571Z,2.60
2023-01-05T09:49:33.980Z,3.57
2023-01-05T09:52:09.115Z,2.80
2023-01-05T09:54:39.449Z,2.93
2023-01-05T09:57:17.253Z,3.43
2023-01-05T09:59:48.578Z,3.37
2023-01-05T10:02:30.817Z,3.53
2023-01-05T10:05:00.893Z,2.90
2023-01-05T10:07:41.892Z,2.93
2023-01-05T10:10:26.460Z,2.63
2023-01-05T10:13:07.025Z,3.40
2023-01-05T10:15:44.635Z,3.10
2023-01-05T10:18:19.625Z,3.73
2023-01-05T10:21:02.764Z,3.43
2023-01-05T10:23:47.635Z,4.43
2023-01-05T10:26:22.293Z,2.50
2023-01-05T10:28:59.004Z,2.57
2023-01-05T10:31:39.161Z,2.83
2023-01-05T10:34:19.715Z,3.60
2023-01-05T10:37:09.993Z,3.23
2023-01-05T10:39:59.203Z,3.30
2023-01-05T10:42:53.648Z,2.83
2023-01-05T10:45:23.093Z,2.80
2023-01-05T10:47:51.809Z,2.90
2023-01-05T10:50:34.801Z,3.80
2023-01-05T10:53:09.550Z,2.97
2023-01-05T10:55:46.364Z,3.47
2023-01-05T10:58:25.701Z,6.23
2023-01-05T11:00:57.467Z,3.23
2023-01-05T11:04:14.269Z,3.10
2023-01-05T11:06:28.726Z,3.00
2023-01-05T11:09:05.665Z,3.07
2023-01-05T11:11:34.696Z,2.57
2023-01-05T11:14:03.271Z,3.47
2023-01-05T11:16:35.187Z,2.40
2023-01-05T11:19:06.598Z,2.77
2023-01-05T11:21:45.245Z,2.47
2023-01-05T11:24:29.552Z,2.97
2023-01-05T11:27:00.040Z,2.43
2023-01-05T11:29:28.870Z,3.07
2023-01-05T11:32:01.269Z,2.93
2023-01-05T11:34:43.062Z,2.43
2023-01-05T11:37:25.888Z,2.70
2023-01-05T11:39:56.681Z,2.93
2023-01-05T11:42:34.098Z,2.63
2023-01-05T11:45:06.241Z,3.30
2023-01-05T11:47:43.890Z,3.10
2023-01-05T11:50:21.478Z,3.43
2023-01-05T11:52:54.919Z,2.20
2023-01-05T11:55:35.696Z,2.60
2023-01-05T11:58:25.699Z,6.60
2023-01-05T12:01:20.804Z,2.90
2023-01-05T12:04:01.904Z,2.23
2023-01-05T12:06:51.359Z,3.20
2023-01-05T12:09:32.706Z,2.70
2023-01-05T12:12:14.937Z,1.90
2023-01-05T12:15:08.843Z,2.63
2023-01-05T12:17:46.053Z,2.43
2023-01-05T12:20:55.115Z,2.47
2023-01-05T12:23:42.964Z,2.43
2023-01-05T12:26:22.690Z,2.70
2023-01-05T12:30:43.338Z,2.60
2023-01-05T12:35:37.802Z,2.80
2023-01-05T12:38:23.824Z,2.40
2023-01-05T12:41:09.606Z,2.47
2023-01-05T12:43:52.906Z,2.88
2023-01-05T12:46:40.039Z,2.57
2023-01-05T12:49:12.996Z,2.23
2023-01-05T12:51:48.036Z,3.03
2023-01-05T12:54:31.501Z,3.00
2023-01-05T12:57:04.167Z,1.90
2023-01-05T12:59:39.202Z,2.90
2023-01-05T13:02:23.974Z,2.83
2023-01-05T13:05:00.125Z,3.60
2023-01-05T13:07:33.598Z,2.97
2023-01-05T13:10:07.932Z,2.73
2023-01-05T13:12:38.099Z,2.20
2023-01-05T13:15:17.881Z,3.17
2023-01-05T13:17:49.735Z,4.50
2023-01-05T13:20:28.266Z,2.73
2023-01-05T13:23:02.462Z,3.27
2023-01-05T13:25:37.835Z,2.83
2023-01-05T13:30:48.800Z,3.10
2023-01-05T13:33:42.963Z,2.53
2023-01-05T13:36:26.973Z,3.33
2023-01-05T13:39:28.221Z,2.77
2023-01-05T13:42:17.546Z,2.50
2023-01-05T13:45:25.218Z,2.40
2023-01-05T13:48:14.689Z,2.43
2023-01-05T13:50:57.844Z,2.57
2023-01-05T13:53:29.996Z,2.97
2023-01-05T13:56:01.234Z,3.07
2023-01-05T13:58:40.792Z,2.60
2023-01-05T14:01:14.052Z,2.50
2023-01-05T14:03:51.246Z,2.87
2023-01-05T14:06:23.757Z,3.53
2023-01-05T14:08:58.256Z,2.43
2023-01-05T14:11:28.496Z,2.07
2023-01-05T14:13:59.701Z,2.50
2023-01-05T14:16:50.532Z,3.20
2023-01-05T14:20:00.561Z,2.73
2023-01-05T14:22:38.869Z,2.40
2023-01-05T14:25:48.817Z,3.50
2023-01-05T14:28:40.778Z,3.50
2023-01-05T14:31:37.665Z,4.07
2023-01-05T14:34:09.647Z,4.37
2023-01-05T14:36:41.332Z,4.30
2023-01-05T14:39:25.787Z,4.27
2023-01-05T14:42:07.658Z,4.50
2023-01-05T14:44:42.296Z,4.97
2023-01-05T14:47:12.214Z,5.10
2023-01-05T14:49:43.668Z,5.43
2023-01-05T14:52:18.479Z,5.70
2023-01-05T14:55:37.164Z,5.17
2023-01-05T14:58:12.740Z,7.13
2023-01-05T15:00:55.159Z,5.90
2023-01-05T15:03:40.978Z,6.50
2023-01-05T15:06:15.025Z,5.30
2023-01-05T15:09:10.631Z,5.97
2023-01-05T15:12:03.656Z,5.47
2023-01-05T15:15:05.036Z,4.77
2023-01-05T15:18:07.536Z,4.30
2023-01-05T15:21:12.087Z,4.53
2023-01-05T15:24:38.030Z,4.17
2023-01-05T15:27:34.392Z,3.37
2023-01-05T15:30:23.439Z,3.90
2023-01-05T15:33:05.398Z,2.80
2023-01-05T15:35:38.003Z,4.00
2023-01-05T15:38:22.612Z,2.90
2023-01-05T15:41:00.524Z,3.17
2023-01-05T15:43:30.823Z,2.87
2023-01-05T15:46:00.144Z,2.87
2023-01-05T15:48:36.088Z,3.63
2023-01-05T15:51:05.780Z,3.00
2023-01-05T15:53:38.358Z,3.60
2023-01-05T15:56:09.178Z,3.17
2023-01-05T15:58:46.867Z,3.00
2023-01-05T16:01:17.575Z,3.67
2023-01-05T16:03:49.066Z,2.60
2023-01-05T16:06:20.931Z,3.03
2023-01-05T16:08:52.097Z,3.63
2023-01-05T16:11:25.174Z,3.43
2023-01-05T16:13:58.619Z,2.67
2023-01-05T16:16:51.390Z,4.10
2023-01-05T16:19:25.769Z,3.77
2023-01-05T16:21:59.897Z,2.83
2023-01-05T16:24:33.825Z,3.70
2023-01-05T16:27:04.926Z,4.00
2023-01-05T16:29:39.182Z,4.13
2023-01-05T16:32:28.407Z,4.23
2023-01-05T16:35:22.568Z,3.70
2023-01-05T16:38:24.860Z,3.83
2023-01-05T16:41:06.709Z,3.57
2023-01-05T16:43:38.229Z,3.17
2023-01-05T16:46:31.641Z,3.17
2023-01-05T16:49:02.889Z,3.43
2023-01-05T16:51:42.559Z,3.70
2023-01-05T16:54:20.922Z,3.57
2023-01-05T16:56:58.324Z,3.87
2023-01-05T16:59:50.024Z,3.47
2023-01-05T17:02:44.654Z,4.33
2023-01-05T17:05:17.234Z,3.60
2023-01-05T17:07:48.186Z,3.60
2023-01-05T17:10:20.605Z,3.87
2023-01-05T17:12:55.826Z,3.40
2023-01-05T17:15:29.488Z,4.37
2023-01-05T17:17:59.860Z,4.57
2023-01-05T17:20:31.747Z,4.40
2023-01-05T17:23:00.414Z,3.70
2023-01-05T17:25:34.220Z,3.37
2023-01-05T17:28:02.971Z,3.50
2023-01-05T17:30:31.467Z,3.70
2023-01-05T17:33:03.052Z,3.60
2023-01-05T17:35:32.101Z,3.77
2023-01-05T17:38:00.805Z,3.80
2023-01-05T17:40:29.821Z,3.57
2023-01-05T17:42:58.905Z,3.67
2023-01-05T17:45:27.692Z,3.70
2023-01-05T17:47:56.735Z,3.37
2023-01-05T17:50:29.874Z,4.57
2023-01-05T17:52:59.922Z,5.03
2023-01-05T17:55:29.485Z,3.83
2023-01-05T17:57:59.803Z,3.57
2023-01-05T18:00:30.581Z,3.90
2023-01-05T18:02:59.642Z,3.90
2023-01-05T18:05:29.832Z,4.53
2023-01-05T18:07:58.569Z,4.60
2023-01-05T18:10:29.117Z,4.37
2023-01-05T18:12:58.506Z,3.77
2023-01-05T18:18:02.249Z,4.07
2023-01-05T18:20:32.464Z,4.10
2023-01-05T18:23:00.965Z,3.50
2023-01-05T18:25:30.042Z,4.63
2023-01-05T18:27:58.630Z,4.13
2023-01-05T18:30:27.614Z,4.37
2023-01-05T18:32:56.305Z,5.10
2023-01-05T18:35:25.138Z,3.27
2023-01-05T18:37:58.141Z,4.67
2023-01-05T18:40:27.455Z,4.80
2023-01-05T18:42:56.255Z,4.37
2023-01-05T18:45:32.261Z,4.57
2023-01-05T18:48:06.937Z,4.57
2023-01-05T18:50:36.338Z,4.00
2023-01-05T18:53:06.256Z,4.50
2023-01-05T18:55:35.223Z,4.13
2023-01-05T18:58:03.730Z,4.40
2023-01-05T19:00:33.253Z,3.43
2023-01-05T19:03:01.991Z,4.00
2023-01-05T19:05:31.225Z,4.30
2023-01-05T19:07:59.775Z,4.23
2023-01-05T19:10:33.051Z,4.27
2023-01-05T19:13:01.655Z,3.63
2023-01-05T19:15:30.422Z,4.33
2023-01-05T19:17:58.937Z,3.77
2023-01-05T19:20:27.774Z,3.40
2023-01-05T19:22:56.143Z,3.57
2023-01-05T19:25:24.873Z,3.83
2023-01-05T19:27:54.851Z,3.17
2023-01-05T19:30:24.899Z,3.43
2023-01-05T19:32:53.723Z,7.70
2023-01-05T19:35:22.788Z,3.83
2023-01-05T19:37:51.519Z,4.30
2023-01-05T19:40:20.618Z,4.23
2023-01-05T19:42:49.369Z,3.53
2023-01-05T19:45:19.859Z,3.50
2023-01-05T19:47:48.647Z,3.97
2023-01-05T19:50:17.825Z,3.27
2023-01-05T19:52:46.516Z,3.80
2023-01-05T19:55:15.538Z,3.87
2023-01-05T19:57:44.536Z,3.30
2023-01-05T20:00:15.219Z,4.07
2023-01-05T20:02:45.285Z,3.67
2023-01-05T20:05:15.007Z,3.13
2023-01-05T20:07:43.889Z,3.37
2023-01-05T20:10:14.500Z,4.20
2023-01-05T20:12:43.304Z,3.53
2023-01-05T20:15:13.278Z,2.97
2023-01-05T20:17:44.507Z,4.87
2023-01-05T20:20:15.370Z,3.87
2023-01-05T20:22:44.056Z,3.27
2023-01-05T20:25:13.168Z,4.33
2023-01-05T20:27:41.850Z,3.20
2023-01-05T20:30:12.435Z,3.20
2023-01-05T20:32:41.242Z,8.70
2023-01-05T20:35:14.008Z,3.10
2023-01-05T20:37:44.148Z,3.40
2023-01-05T20:40:13.386Z,3.63
2023-01-05T20:42:42.443Z,4.13
2023-01-05T20:45:11.762Z,3.50
2023-01-05T20:47:47.410Z,3.90
2023-01-05T20:50:17.673Z,3.40
2023-01-05T20:52:47.711Z,4.17
2023-01-05T20:55:19.008Z,4.07
2023-01-05T20:57:48.859Z,3.70
2023-01-05T21:00:18.525Z,3.53
2023-01-05T21:02:49.440Z,3.77
2023-01-05T21:05:19.675Z,3.33
2023-01-05T21:07:49.902Z,4.00
2023-01-05T21:10:19.755Z,3.53
2023-01-05T21:12:48.538Z,4.00
2023-01-05T21:15:17.862Z,4.33
2023-01-05T21:17:46.627Z,4.30
2023-01-05T21:20:15.907Z,3.43
2023-01-05T21:22:45.363Z,4.20
2023-01-05T21:25:15.744Z,3.80
2023-01-05T21:27:44.871Z,5.20
2023-01-05T21:30:14.599Z,4.70
2023-01-05T21:32:43.576Z,10.87
2023-01-05T21:35:12.754Z,4.23
2023-01-05T21:37:41.310Z,4.53
2023-01-05T21:40:11.737Z,4.93
2023-01-05T21:42:42.613Z,5.10
2023-01-05T21:45:13.162Z,5.47
2023-01-05T21:47:41.629Z,4.93
2023-01-05T21:50:31.739Z,5.00
2023-01-05T21:53:17.596Z,5.33
2023-01-05T21:56:04.020Z,5.37
2023-01-05T21:58:34.397Z,5.00
2023-01-05T22:01:04.102Z,4.77
2023-01-05T22:03:32.585Z,4.93
2023-01-05T22:06:01.263Z,4.70
2023-01-05T22:08:29.782Z,5.27
2023-01-05T22:10:59.893Z,5.03
2023-01-05T22:13:28.900Z,4.93
2023-01-05T22:15:59.527Z,4.37
2023-01-05T22:18:27.885Z,6.73
2023-01-05T22:20:58.984Z,5.47
2023-01-05T22:23:28.046Z,4.53
2023-01-05T22:26:01.108Z,4.67
2023-01-05T22:28:29.959Z,5.50
2023-01-05T22:31:08.339Z,4.03
2023-01-05T22:33:39.025Z,4.73
2023-01-05T22:36:08.838Z,4.17
2023-01-05T22:38:39.222Z,6.37
2023-01-05T22:41:09.630Z,5.47
2023-01-05T22:43:39.123Z,5.43
2023-01-05T22:46:12.688Z,5.53
2023-01-05T22:48:43.140Z,5.40
2023-01-05T22:51:15.549Z,5.73
2023-01-05T22:53:44.344Z,4.20
2023-01-05T22:56:14.950Z,4.97
2023-01-05T22:58:43.783Z,6.20
2023-01-05T23:01:15.707Z,4.73
2023-01-05T23:03:44.332Z,6.23
2023-01-05T23:06:13.362Z,5.47
2023-01-05T23:08:42.921Z,5.97
2023-01-05T23:11:13.174Z,7.13
2023-01-05T23:13:42.019Z,5.77
2023-01-05T23:16:11.513Z,5.70
2023-01-05T23:18:42.251Z,5.13
2023-01-05T23:21:12.889Z,5.40
2023-01-05T23:23:41.675Z,6.13
2023-01-05T23:26:12.337Z,5.80
2023-01-05T23:28:42.377Z,6.47
2023-01-05T23:31:14.212Z,5.90
2023-01-05T23:33:44.826Z,6.07
2023-01-05T23:36:15.607Z,5.03
2023-01-05T23:38:44.744Z,5.77
2023-01-05T23:41:15.288Z,6.17
2023-01-05T23:43:45.565Z,5.67
2023-01-05T23:46:17.522Z,6.70
2023-01-05T23:48:47.942Z,5.30
2023-01-05T23:51:17.228Z,5.40
2023-01-05T23:53:48.795Z,6.33
2023-01-05T23:56:20.401Z,6.63
2023-01-05T23:58:48.829Z,5.63
